sensor_id;sensor_type;location;lat;lon;timestamp;P1;durP1;ratioP1;P2;durP2;ratioP2
21822;SDS011;11074;48.596;9.238;2023-04-06T00:01:37;13.50;;;8.85;;
21822;SDS011;11074;48.596;9.238;2023-04-06T00:04:03;13.50;;;9.40;;
21822;SDS011;11074;48.596;9.238;2023-04-06T00:06:29;14.65;;;8.85;;
21822;SDS011;11074;48.596;9.238;2023-04-06T00:08:55;13.60;;;9.60;;
21822;SDS011;11074;48.596;9.238;2023-04-06T00:11:21;13.88;;;9.23;;
21822;SDS011;11074;48.596;9.238;2023-04-06T00:13:47;14.98;;;9.38;;
21822;SDS011;11074;48.596;9.238;2023-04-06T00:16:13;14.88;;;9.02;;
21822;SDS011;11074;48.596;9.238;2023-04-06T00:18:39;13.63;;;9.15;;
21822;SDS011;11074;48.596;9.238;2023-04-06T00:21:05;12.88;;;8.73;;
21822;SDS011;11074;48.596;9.238;2023-04-06T00:23:30;12.57;;;8.48;;
21822;SDS011;11074;48.596;9.238;2023-04-06T00:25:56;13.60;;;8.35;;
21822;SDS011;11074;48.596;9.238;2023-04-06T00:28:22;14.32;;;8.32;;
21822;SDS011;11074;48.596;9.238;2023-04-06T00:30:51;11.40;;;7.63;;
21822;SDS011;11074;48.596;9.238;2023-04-06T00:33:20;13.40;;;8.40;;
21822;SDS011;11074;48.596;9.238;2023-04-06T00:35:46;11.88;;;8.30;;
21822;SDS011;11074;48.596;9.238;2023-04-06T00:38:12;11.40;;;8.20;;
21822;SDS011;11074;48.596;9.238;2023-04-06T00:40:39;11.23;;;7.72;;
21822;SDS011;11074;48.596;9.238;2023-04-06T00:43:08;11.68;;;7.43;;
21822;SDS011;11074;48.596;9.238;2023-04-06T00:45:34;10.60;;;7.95;;
21822;SDS011;11074;48.596;9.238;2023-04-06T00:48:00;13.15;;;8.00;;
21822;SDS011;11074;48.596;9.238;2023-04-06T00:50:26;10.43;;;7.75;;
21822;SDS011;11074;48.596;9.238;2023-04-06T00:52:52;12.13;;;7.70;;
21822;SDS011;11074;48.596;9.238;2023-04-06T00:55:19;11.63;;;8.40;;
21822;SDS011;11074;48.596;9.238;2023-04-06T00:57:45;11.05;;;7.88;;
21822;SDS011;11074;48.596;9.238;2023-04-06T01:00:12;9.68;;;7.35;;
21822;SDS011;11074;48.596;9.238;2023-04-06T01:02:38;12.43;;;7.22;;
21822;SDS011;11074;48.596;9.238;2023-04-06T01:05:04;12.70;;;7.60;;
21822;SDS011;11074;48.596;9.238;2023-04-06T01:07:31;11.02;;;7.57;;
21822;SDS011;11074;48.596;9.238;2023-04-06T01:09:57;10.35;;;7.38;;
21822;SDS011;11074;48.596;9.238;2023-04-06T01:12:23;10.95;;;7.82;;
21822;SDS011;11074;48.596;9.238;2023-04-06T01:14:49;10.65;;;7.20;;
21822;SDS011;11074;48.596;9.238;2023-04-06T01:17:15;11.80;;;7.60;;
21822;SDS011;11074;48.596;9.238;2023-04-06T01:19:41;11.60;;;7.07;;
21822;SDS011;11074;48.596;9.238;2023-04-06T01:22:07;11.48;;;6.78;;
21822;SDS011;11074;48.596;9.238;2023-04-06T01:24:33;9.40;;;6.75;;
21822;SDS011;11074;48.596;9.238;2023-04-06T01:26:58;9.13;;;6.28;;
21822;SDS011;11074;48.596;9.238;2023-04-06T01:29:25;9.95;;;7.40;;
21822;SDS011;11074;48.596;9.238;2023-04-06T01:31:51;9.95;;;7.15;;
21822;SDS011;11074;48.596;9.238;2023-04-06T01:34:17;10.13;;;6.78;;
21822;SDS011;11074;48.596;9.238;2023-04-06T01:36:42;10.15;;;7.25;;
21822;SDS011;11074;48.596;9.238;2023-04-06T01:39:08;12.60;;;7.70;;
21822;SDS011;11074;48.596;9.238;2023-04-06T01:41:34;10.88;;;6.88;;
21822;SDS011;11074;48.596;9.238;2023-04-06T01:44:01;16.48;;;7.88;;
21822;SDS011;11074;48.596;9.238;2023-04-06T01:46:27;10.50;;;7.63;;
21822;SDS011;11074;48.596;9.238;2023-04-06T01:48:53;12.20;;;7.60;;
21822;SDS011;11074;48.596;9.238;2023-04-06T01:51:18;8.70;;;7.05;;
21822;SDS011;11074;48.596;9.238;2023-04-06T01:53:44;10.07;;;7.20;;
21822;SDS011;11074;48.596;9.238;2023-04-06T01:56:10;12.25;;;7.50;;
21822;SDS011;11074;48.596;9.238;2023-04-06T01:58:36;10.77;;;7.07;;
21822;SDS011;11074;48.596;9.238;2023-04-06T02:01:01;10.38;;;7.22;;
21822;SDS011;11074;48.596;9.238;2023-04-06T02:03:27;10.40;;;6.85;;
21822;SDS011;11074;48.596;9.238;2023-04-06T02:05:53;10.60;;;7.30;;
21822;SDS011;11074;48.596;9.238;2023-04-06T02:08:18;9.10;;;6.78;;
21822;SDS011;11074;48.596;9.238;2023-04-06T02:10:44;11.77;;;7.47;;
21822;SDS011;11074;48.596;9.238;2023-04-06T02:13:10;11.48;;;7.55;;
21822;SDS011;11074;48.596;9.238;2023-04-06T02:15:35;11.23;;;7.53;;
21822;SDS011;11074;48.596;9.238;2023-04-06T02:18:01;12.43;;;7.30;;
21822;SDS011;11074;48.596;9.238;2023-04-06T02:20:27;11.60;;;7.35;;
21822;SDS011;11074;48.596;9.238;2023-04-06T02:22:52;12.07;;;7.50;;
21822;SDS011;11074;48.596;9.238;2023-04-06T02:25:18;11.93;;;7.35;;
21822;SDS011;11074;48.596;9.238;2023-04-06T02:27:44;10.85;;;7.82;;
21822;SDS011;11074;48.596;9.238;2023-04-06T02:30:09;9.35;;;7.05;;
21822;SDS011;11074;48.596;9.238;2023-04-06T02:32:35;9.82;;;6.85;;
21822;SDS011;11074;48.596;9.238;2023-04-06T02:35:01;10.50;;;7.25;;
21822;SDS011;11074;48.596;9.238;2023-04-06T02:37:27;13.05;;;8.00;;
21822;SDS011;11074;48.596;9.238;2023-04-06T02:39:53;11.60;;;7.57;;
21822;SDS011;11074;48.596;9.238;2023-04-06T02:42:18;10.95;;;7.55;;
21822;SDS011;11074;48.596;9.238;2023-04-06T02:44:44;11.73;;;7.38;;
21822;SDS011;11074;48.596;9.238;2023-04-06T02:47:10;8.75;;;6.35;;
21822;SDS011;11074;48.596;9.238;2023-04-06T02:49:36;9.27;;;6.85;;
21822;SDS011;11074;48.596;9.238;2023-04-06T02:52:01;10.52;;;6.65;;
21822;SDS011;11074;48.596;9.238;2023-04-06T02:54:28;10.15;;;6.78;;
21822;SDS011;11074;48.596;9.238;2023-04-06T02:56:53;10.88;;;7.13;;
21822;SDS011;11074;48.596;9.238;2023-04-06T02:59:19;12.07;;;6.80;;
21822;SDS011;11074;48.596;9.238;2023-04-06T03:01:45;11.63;;;6.30;;
21822;SDS011;11074;48.596;9.238;2023-04-06T03:04:11;11.65;;;6.75;;
21822;SDS011;11074;48.596;9.238;2023-04-06T03:06:36;10.13;;;7.30;;
21822;SDS011;11074;48.596;9.238;2023-04-06T03:09:02;11.48;;;7.60;;
21822;SDS011;11074;48.596;9.238;2023-04-06T03:11:28;10.43;;;7.10;;
21822;SDS011;11074;48.596;9.238;2023-04-06T03:13:54;12.80;;;7.70;;
21822;SDS011;11074;48.596;9.238;2023-04-06T03:16:20;10.70;;;6.70;;
21822;SDS011;11074;48.596;9.238;2023-04-06T03:18:45;10.27;;;7.13;;
21822;SDS011;11074;48.596;9.238;2023-04-06T03:21:12;10.15;;;7.13;;
21822;SDS011;11074;48.596;9.238;2023-04-06T03:23:41;13.15;;;7.18;;
21822;SDS011;11074;48.596;9.238;2023-04-06T03:26:07;10.57;;;6.90;;
21822;SDS011;11074;48.596;9.238;2023-04-06T03:28:33;9.18;;;6.70;;
21822;SDS011;11074;48.596;9.238;2023-04-06T03:30:59;12.55;;;6.95;;
21822;SDS011;11074;48.596;9.238;2023-04-06T03:33:25;9.35;;;7.10;;
21822;SDS011;11074;48.596;9.238;2023-04-06T03:35:53;10.05;;;7.45;;
21822;SDS011;11074;48.596;9.238;2023-04-06T03:38:19;11.27;;;7.28;;
21822;SDS011;11074;48.596;9.238;2023-04-06T03:40:45;14.18;;;7.18;;
21822;SDS011;11074;48.596;9.238;2023-04-06T03:43:11;10.32;;;7.63;;
21822;SDS011;11074;48.596;9.238;2023-04-06T03:45:37;11.80;;;7.50;;
21822;SDS011;11074;48.596;9.238;2023-04-06T03:48:02;13.32;;;7.28;;
21822;SDS011;11074;48.596;9.238;2023-04-06T03:50:29;11.93;;;7.60;;
21822;SDS011;11074;48.596;9.238;2023-04-06T03:52:55;10.13;;;7.22;;
21822;SDS011;11074;48.596;9.238;2023-04-06T03:55:21;9.88;;;6.72;;
21822;SDS011;11074;48.596;9.238;2023-04-06T03:57:46;11.00;;;7.32;;
21822;SDS011;11074;48.596;9.238;2023-04-06T04:00:12;12.07;;;7.38;;
21822;SDS011;11074;48.596;9.238;2023-04-06T04:02:38;9.07;;;6.97;;
21822;SDS011;11074;48.596;9.238;2023-04-06T04:05:04;10.48;;;6.97;;
21822;SDS011;11074;48.596;9.238;2023-04-06T04:07:31;11.38;;;7.43;;
21822;SDS011;11074;48.596;9.238;2023-04-06T04:09:56;9.80;;;6.60;;
21822;SDS011;11074;48.596;9.238;2023-04-06T04:12:22;9.52;;;7.40;;
21822;SDS011;11074;48.596;9.238;2023-04-06T04:14:48;11.35;;;6.68;;
21822;SDS011;11074;48.596;9.238;2023-04-06T04:17:13;10.25;;;6.80;;
21822;SDS011;11074;48.596;9.238;2023-04-06T04:19:39;11.35;;;7.32;;
21822;SDS011;11074;48.596;9.238;2023-04-06T04:22:05;11.07;;;7.82;;
21822;SDS011;11074;48.596;9.238;2023-04-06T04:24:31;11.43;;;7.70;;
21822;SDS011;11074;48.596;9.238;2023-04-06T04:26:58;9.93;;;7.20;;
21822;SDS011;11074;48.596;9.238;2023-04-06T04:29:25;10.60;;;7.70;;
21822;SDS011;11074;48.596;9.238;2023-04-06T04:31:51;11.45;;;7.10;;
21822;SDS011;11074;48.596;9.238;2023-04-06T04:34:17;10.00;;;7.18;;
21822;SDS011;11074;48.596;9.238;2023-04-06T04:36:48;9.93;;;7.35;;
21822;SDS011;11074;48.596;9.238;2023-04-06T04:39:14;9.73;;;6.88;;
21822;SDS011;11074;48.596;9.238;2023-04-06T04:41:40;10.85;;;7.20;;
21822;SDS011;11074;48.596;9.238;2023-04-06T04:44:05;10.70;;;7.18;;
21822;SDS011;11074;48.596;9.238;2023-04-06T04:46:31;11.85;;;7.63;;
21822;SDS011;11074;48.596;9.238;2023-04-06T04:48:57;11.52;;;7.22;;
21822;SDS011;11074;48.596;9.238;2023-04-06T04:51:22;10.55;;;7.07;;
21822;SDS011;11074;48.596;9.238;2023-04-06T04:53:49;11.02;;;7.40;;
21822;SDS011;11074;48.596;9.238;2023-04-06T04:56:15;12.48;;;7.65;;
21822;SDS011;11074;48.596;9.238;2023-04-06T04:58:41;10.10;;;7.30;;
21822;SDS011;11074;48.596;9.238;2023-04-06T05:01:07;13.38;;;7.13;;
21822;SDS011;11074;48.596;9.238;2023-04-06T05:03:33;11.73;;;8.10;;
21822;SDS011;11074;48.596;9.238;2023-04-06T05:06:00;10.68;;;7.25;;
21822;SDS011;11074;48.596;9.238;2023-04-06T05:08:26;12.77;;;7.45;;
21822;SDS011;11074;48.596;9.238;2023-04-06T05:10:52;10.75;;;7.63;;
21822;SDS011;11074;48.596;9.238;2023-04-06T05:13:18;10.32;;;7.15;;
21822;SDS011;11074;48.596;9.238;2023-04-06T05:15:44;10.25;;;6.85;;
21822;SDS011;11074;48.596;9.238;2023-04-06T05:18:12;10.85;;;7.28;;
21822;SDS011;11074;48.596;9.238;2023-04-06T05:20:42;11.30;;;7.18;;
21822;SDS011;11074;48.596;9.238;2023-04-06T05:23:07;11.70;;;7.88;;
21822;SDS011;11074;48.596;9.238;2023-04-06T05:25:33;12.20;;;7.32;;
21822;SDS011;11074;48.596;9.238;2023-04-06T05:27:59;11.88;;;7.90;;
21822;SDS011;11074;48.596;9.238;2023-04-06T05:30:25;11.82;;;7.78;;
21822;SDS011;11074;48.596;9.238;2023-04-06T05:32:51;11.00;;;7.07;;
21822;SDS011;11074;48.596;9.238;2023-04-06T05:35:16;13.05;;;8.00;;
21822;SDS011;11074;48.596;9.238;2023-04-06T05:37:42;14.15;;;7.68;;
21822;SDS011;11074;48.596;9.238;2023-04-06T05:40:08;11.00;;;7.82;;
21822;SDS011;11074;48.596;9.238;2023-04-06T05:42:38;12.18;;;7.45;;
21822;SDS011;11074;48.596;9.238;2023-04-06T05:45:06;15.02;;;8.35;;
21822;SDS011;11074;48.596;9.238;2023-04-06T05:47:32;12.65;;;8.27;;
21822;SDS011;11074;48.596;9.238;2023-04-06T05:49:58;15.15;;;8.07;;
21822;SDS011;11074;48.596;9.238;2023-04-06T05:52:24;10.85;;;7.47;;
21822;SDS011;11074;48.596;9.238;2023-04-06T05:54:50;11.40;;;7.72;;
21822;SDS011;11074;48.596;9.238;2023-04-06T05:57:16;11.55;;;8.50;;
21822;SDS011;11074;48.596;9.238;2023-04-06T05:59:42;11.40;;;7.50;;
21822;SDS011;11074;48.596;9.238;2023-04-06T06:02:08;13.05;;;8.45;;
21822;SDS011;11074;48.596;9.238;2023-04-06T06:04:33;12.70;;;8.27;;
21822;SDS011;11074;48.596;9.238;2023-04-06T06:06:59;11.60;;;8.05;;
21822;SDS011;11074;48.596;9.238;2023-04-06T06:09:25;13.00;;;7.82;;
21822;SDS011;11074;48.596;9.238;2023-04-06T06:11:51;12.60;;;8.18;;
21822;SDS011;11074;48.596;9.238;2023-04-06T06:14:17;14.02;;;8.70;;
21822;SDS011;11074;48.596;9.238;2023-04-06T06:16:42;12.70;;;8.10;;
21822;SDS011;11074;48.596;9.238;2023-04-06T06:19:08;13.40;;;8.13;;
21822;SDS011;11074;48.596;9.238;2023-04-06T06:21:34;13.07;;;8.20;;
21822;SDS011;11074;48.596;9.238;2023-04-06T06:23:59;12.93;;;8.15;;
21822;SDS011;11074;48.596;9.238;2023-04-06T06:26:25;13.98;;;8.88;;
21822;SDS011;11074;48.596;9.238;2023-04-06T06:28:51;14.80;;;8.32;;
21822;SDS011;11074;48.596;9.238;2023-04-06T06:31:17;13.13;;;8.68;;
21822;SDS011;11074;48.596;9.238;2023-04-06T06:33:45;11.93;;;7.88;;
21822;SDS011;11074;48.596;9.238;2023-04-06T06:36:12;12.80;;;8.38;;
21822;SDS011;11074;48.596;9.238;2023-04-06T06:38:38;13.93;;;8.93;;
21822;SDS011;11074;48.596;9.238;2023-04-06T06:41:04;12.65;;;7.97;;
21822;SDS011;11074;48.596;9.238;2023-04-06T06:43:29;12.00;;;8.05;;
21822;SDS011;11074;48.596;9.238;2023-04-06T06:45:55;12.38;;;8.77;;
21822;SDS011;11074;48.596;9.238;2023-04-06T06:48:21;10.90;;;7.75;;
21822;SDS011;11074;48.596;9.238;2023-04-06T06:50:47;16.75;;;8.57;;
21822;SDS011;11074;48.596;9.238;2023-04-06T06:53:13;11.65;;;8.15;;
21822;SDS011;11074;48.596;9.238;2023-04-06T06:55:39;13.77;;;9.02;;
21822;SDS011;11074;48.596;9.238;2023-04-06T06:58:05;13.98;;;8.68;;
21822;SDS011;11074;48.596;9.238;2023-04-06T07:00:31;11.27;;;8.30;;
21822;SDS011;11074;48.596;9.238;2023-04-06T07:02:57;12.45;;;8.43;;
21822;SDS011;11074;48.596;9.238;2023-04-06T07:05:23;12.18;;;8.10;;
21822;SDS011;11074;48.596;9.238;2023-04-06T07:07:48;10.85;;;8.60;;
21822;SDS011;11074;48.596;9.238;2023-04-06T07:10:14;12.95;;;8.25;;
21822;SDS011;11074;48.596;9.238;2023-04-06T07:12:39;11.93;;;8.05;;
21822;SDS011;11074;48.596;9.238;2023-04-06T07:15:05;10.57;;;7.90;;
21822;SDS011;11074;48.596;9.238;2023-04-06T07:17:32;12.88;;;8.25;;
21822;SDS011;11074;48.596;9.238;2023-04-06T07:19:57;11.88;;;8.05;;
21822;SDS011;11074;48.596;9.238;2023-04-06T07:22:23;11.30;;;8.10;;
21822;SDS011;11074;48.596;9.238;2023-04-06T07:24:49;10.90;;;8.55;;
21822;SDS011;11074;48.596;9.238;2023-04-06T07:27:15;13.70;;;8.75;;
21822;SDS011;11074;48.596;9.238;2023-04-06T07:29:41;15.52;;;8.50;;
21822;SDS011;11074;48.596;9.238;2023-04-06T07:32:07;13.32;;;8.57;;
21822;SDS011;11074;48.596;9.238;2023-04-06T07:34:33;12.57;;;8.02;;
21822;SDS011;11074;48.596;9.238;2023-04-06T07:36:58;11.93;;;8.48;;
21822;SDS011;11074;48.596;9.238;2023-04-06T07:39:25;11.27;;;8.68;;
21822;SDS011;11074;48.596;9.238;2023-04-06T07:41:51;12.75;;;8.73;;
21822;SDS011;11074;48.596;9.238;2023-04-06T07:44:18;12.80;;;8.68;;
21822;SDS011;11074;48.596;9.238;2023-04-06T07:46:43;11.48;;;8.05;;
21822;SDS011;11074;48.596;9.238;2023-04-06T07:49:09;13.40;;;8.63;;
21822;SDS011;11074;48.596;9.238;2023-04-06T07:51:35;11.93;;;9.07;;
21822;SDS011;11074;48.596;9.238;2023-04-06T07:54:03;11.50;;;8.35;;
21822;SDS011;11074;48.596;9.238;2023-04-06T07:56:29;15.13;;;9.25;;
21822;SDS011;11074;48.596;9.238;2023-04-06T07:58:54;18.63;;;10.82;;
21822;SDS011;11074;48.596;9.238;2023-04-06T08:01:22;13.95;;;9.48;;
21822;SDS011;11074;48.596;9.238;2023-04-06T08:03:47;13.10;;;8.07;;
21822;SDS011;11074;48.596;9.238;2023-04-06T08:06:14;14.48;;;8.73;;
21822;SDS011;11074;48.596;9.238;2023-04-06T08:08:40;14.10;;;8.57;;
21822;SDS011;11074;48.596;9.238;2023-04-06T08:11:07;15.80;;;9.30;;
21822;SDS011;11074;48.596;9.238;2023-04-06T08:13:33;13.05;;;8.77;;
21822;SDS011;11074;48.596;9.238;2023-04-06T08:16:00;16.50;;;8.77;;
21822;SDS011;11074;48.596;9.238;2023-04-06T08:18:26;12.70;;;8.45;;
21822;SDS011;11074;48.596;9.238;2023-04-06T08:20:52;11.90;;;9.02;;
21822;SDS011;11074;48.596;9.238;2023-04-06T08:23:19;13.13;;;8.68;;
21822;SDS011;11074;48.596;9.238;2023-04-06T08:25:45;13.85;;;8.48;;
21822;SDS011;11074;48.596;9.238;2023-04-06T08:28:10;11.10;;;8.30;;
21822;SDS011;11074;48.596;9.238;2023-04-06T08:30:36;12.45;;;8.07;;
21822;SDS011;11074;48.596;9.238;2023-04-06T08:33:05;12.55;;;8.60;;
21822;SDS011;11074;48.596;9.238;2023-04-06T08:35:31;11.98;;;8.32;;
21822;SDS011;11074;48.596;9.238;2023-04-06T08:37:57;15.82;;;8.85;;
21822;SDS011;11074;48.596;9.238;2023-04-06T08:40:23;11.82;;;8.85;;
21822;SDS011;11074;48.596;9.238;2023-04-06T08:42:49;12.60;;;7.93;;
21822;SDS011;11074;48.596;9.238;2023-04-06T08:45:19;11.57;;;7.53;;
21822;SDS011;11074;48.596;9.238;2023-04-06T08:47:46;10.82;;;7.68;;
21822;SDS011;11074;48.596;9.238;2023-04-06T08:50:15;13.52;;;8.00;;
21822;SDS011;11074;48.596;9.238;2023-04-06T08:52:43;11.02;;;7.88;;
21822;SDS011;11074;48.596;9.238;2023-04-06T08:55:12;13.02;;;8.70;;
21822;SDS011;11074;48.596;9.238;2023-04-06T08:57:38;13.80;;;8.57;;
21822;SDS011;11074;48.596;9.238;2023-04-06T09:00:05;11.77;;;7.68;;
21822;SDS011;11074;48.596;9.238;2023-04-06T09:02:36;14.15;;;8.13;;
21822;SDS011;11074;48.596;9.238;2023-04-06T09:05:07;12.98;;;8.27;;
21822;SDS011;11074;48.596;9.238;2023-04-06T09:07:52;11.88;;;8.05;;
21822;SDS011;11074;48.596;9.238;2023-04-06T09:10:18;10.88;;;7.28;;
21822;SDS011;11074;48.596;9.238;2023-04-06T09:12:43;13.07;;;8.32;;
21822;SDS011;11074;48.596;9.238;2023-04-06T09:15:21;11.45;;;8.20;;
21822;SDS011;11074;48.596;9.238;2023-04-06T09:17:47;13.27;;;7.82;;
21822;SDS011;11074;48.596;9.238;2023-04-06T09:20:13;14.90;;;8.05;;
21822;SDS011;11074;48.596;9.238;2023-04-06T09:22:39;11.93;;;8.07;;
21822;SDS011;11074;48.596;9.238;2023-04-06T09:25:05;14.38;;;9.25;;
21822;SDS011;11074;48.596;9.238;2023-04-06T09:27:35;15.07;;;9.35;;
21822;SDS011;11074;48.596;9.238;2023-04-06T09:30:06;11.60;;;8.07;;
21822;SDS011;11074;48.596;9.238;2023-04-06T09:35:35;13.15;;;8.02;;
21822;SDS011;11074;48.596;9.238;2023-04-06T09:38:10;13.68;;;7.82;;
21822;SDS011;11074;48.596;9.238;2023-04-06T09:40:36;11.95;;;7.80;;
21822;SDS011;11074;48.596;9.238;2023-04-06T09:43:23;11.82;;;7.45;;
21822;SDS011;11074;48.596;9.238;2023-04-06T09:45:52;11.68;;;7.75;;
21822;SDS011;11074;48.596;9.238;2023-04-06T09:48:20;12.85;;;7.70;;
21822;SDS011;11074;48.596;9.238;2023-04-06T09:50:50;12.18;;;7.97;;
21822;SDS011;11074;48.596;9.238;2023-04-06T09:53:25;12.77;;;7.68;;
21822;SDS011;11074;48.596;9.238;2023-04-06T09:55:57;12.77;;;8.07;;
21822;SDS011;11074;48.596;9.238;2023-04-06T09:58:27;12.13;;;7.32;;
21822;SDS011;11074;48.596;9.238;2023-04-06T10:01:09;9.40;;;7.22;;
21822;SDS011;11074;48.596;9.238;2023-04-06T10:03:45;10.68;;;7.05;;
21822;SDS011;11074;48.596;9.238;2023-04-06T10:06:28;14.40;;;7.50;;
21822;SDS011;11074;48.596;9.238;2023-04-06T10:08:58;12.25;;;7.47;;
21822;SDS011;11074;48.596;9.238;2023-04-06T10:11:25;12.57;;;7.40;;
21822;SDS011;11074;48.596;9.238;2023-04-06T10:13:50;10.63;;;6.78;;
21822;SDS011;11074;48.596;9.238;2023-04-06T10:16:16;10.80;;;6.57;;
21822;SDS011;11074;48.596;9.238;2023-04-06T10:18:45;10.38;;;6.50;;
21822;SDS011;11074;48.596;9.238;2023-04-06T10:21:19;8.55;;;5.97;;
21822;SDS011;11074;48.596;9.238;2023-04-06T10:23:51;8.98;;;5.97;;
21822;SDS011;11074;48.596;9.238;2023-04-06T10:26:24;8.35;;;5.75;;
21822;SDS011;11074;48.596;9.238;2023-04-06T10:28:50;10.40;;;5.80;;
21822;SDS011;11074;48.596;9.238;2023-04-06T10:31:23;7.15;;;4.93;;
21822;SDS011;11074;48.596;9.238;2023-04-06T10:33:53;8.73;;;5.03;;
21822;SDS011;11074;48.596;9.238;2023-04-06T10:36:33;9.23;;;5.03;;
21822;SDS011;11074;48.596;9.238;2023-04-06T10:39:03;8.38;;;5.13;;
21822;SDS011;11074;48.596;9.238;2023-04-06T10:41:34;8.13;;;4.93;;
21822;SDS011;11074;48.596;9.238;2023-04-06T10:44:05;9.00;;;5.60;;
21822;SDS011;11074;48.596;9.238;2023-04-06T10:46:32;8.88;;;5.60;;
21822;SDS011;11074;48.596;9.238;2023-04-06T10:49:11;8.73;;;5.60;;
21822;SDS011;11074;48.596;9.238;2023-04-06T10:51:37;9.20;;;5.32;;
21822;SDS011;11074;48.596;9.238;2023-04-06T10:54:04;9.48;;;5.55;;
21822;SDS011;11074;48.596;9.238;2023-04-06T10:56:31;8.27;;;5.25;;
21822;SDS011;11074;48.596;9.238;2023-04-06T10:59:01;9.00;;;6.28;;
21822;SDS011;11074;48.596;9.238;2023-04-06T11:01:27;8.32;;;5.95;;
21822;SDS011;11074;48.596;9.238;2023-04-06T11:03:55;9.88;;;5.35;;
21822;SDS011;11074;48.596;9.238;2023-04-06T11:06:24;8.30;;;4.30;;
21822;SDS011;11074;48.596;9.238;2023-04-06T11:08:53;7.25;;;4.25;;
21822;SDS011;11074;48.596;9.238;2023-04-06T11:11:21;6.45;;;3.88;;
21822;SDS011;11074;48.596;9.238;2023-04-06T11:16:20;7.35;;;4.68;;
21822;SDS011;11074;48.596;9.238;2023-04-06T11:18:50;7.50;;;4.50;;
21822;SDS011;11074;48.596;9.238;2023-04-06T11:21:34;7.70;;;4.18;;
21822;SDS011;11074;48.596;9.238;2023-04-06T11:24:18;9.77;;;4.20;;
21822;SDS011;11074;48.596;9.238;2023-04-06T11:29:22;6.10;;;4.15;;
21822;SDS011;11074;48.596;9.238;2023-04-06T11:31:53;6.40;;;4.05;;
21822;SDS011;11074;48.596;9.238;2023-04-06T11:34:28;6.22;;;4.22;;
21822;SDS011;11074;48.596;9.238;2023-04-06T11:36:59;6.45;;;3.78;;
21822;SDS011;11074;48.596;9.238;2023-04-06T11:39:27;6.32;;;4.40;;
21822;SDS011;11074;48.596;9.238;2023-04-06T11:41:57;7.00;;;4.47;;
21822;SDS011;11074;48.596;9.238;2023-04-06T11:44:37;7.78;;;4.97;;
21822;SDS011;11074;48.596;9.238;2023-04-06T11:47:07;7.72;;;4.82;;
21822;SDS011;11074;48.596;9.238;2023-04-06T11:49:39;6.93;;;4.43;;
21822;SDS011;11074;48.596;9.238;2023-04-06T11:52:20;7.88;;;4.55;;
21822;SDS011;11074;48.596;9.238;2023-04-06T11:54:49;7.72;;;4.10;;
21822;SDS011;11074;48.596;9.238;2023-04-06T11:57:19;5.38;;;3.90;;
21822;SDS011;11074;48.596;9.238;2023-04-06T11:59:50;5.68;;;3.58;;
21822;SDS011;11074;48.596;9.238;2023-04-06T12:02:16;6.70;;;4.10;;
21822;SDS011;11074;48.596;9.238;2023-04-06T12:04:43;8.52;;;4.40;;
21822;SDS011;11074;48.596;9.238;2023-04-06T12:07:09;6.57;;;4.50;;
21822;SDS011;11074;48.596;9.238;2023-04-06T12:09:35;5.80;;;3.90;;
21822;SDS011;11074;48.596;9.238;2023-04-06T12:12:01;6.22;;;3.85;;
21822;SDS011;11074;48.596;9.238;2023-04-06T12:14:28;5.43;;;3.00;;
21822;SDS011;11074;48.596;9.238;2023-04-06T12:16:55;6.13;;;2.92;;
21822;SDS011;11074;48.596;9.238;2023-04-06T12:19:24;4.13;;;2.88;;
21822;SDS011;11074;48.596;9.238;2023-04-06T12:21:50;4.97;;;2.85;;
21822;SDS011;11074;48.596;9.238;2023-04-06T12:24:18;5.65;;;2.70;;
21822;SDS011;11074;48.596;9.238;2023-04-06T12:26:44;6.97;;;3.20;;
21822;SDS011;11074;48.596;9.238;2023-04-06T12:29:10;4.35;;;3.20;;
21822;SDS011;11074;48.596;9.238;2023-04-06T12:31:38;5.28;;;3.00;;
21822;SDS011;11074;48.596;9.238;2023-04-06T12:34:05;5.85;;;3.50;;
21822;SDS011;11074;48.596;9.238;2023-04-06T12:36:31;5.22;;;3.33;;
21822;SDS011;11074;48.596;9.238;2023-04-06T12:38:58;5.32;;;3.35;;
21822;SDS011;11074;48.596;9.238;2023-04-06T12:41:25;6.28;;;3.58;;
21822;SDS011;11074;48.596;9.238;2023-04-06T12:43:52;5.85;;;3.38;;
21822;SDS011;11074;48.596;9.238;2023-04-06T12:46:17;4.72;;;3.15;;
21822;SDS011;11074;48.596;9.238;2023-04-06T12:48:43;6.03;;;3.95;;
21822;SDS011;11074;48.596;9.238;2023-04-06T12:51:09;5.85;;;4.13;;
21822;SDS011;11074;48.596;9.238;2023-04-06T12:53:35;7.10;;;4.25;;
21822;SDS011;11074;48.596;9.238;2023-04-06T12:56:01;4.82;;;3.03;;
21822;SDS011;11074;48.596;9.238;2023-04-06T12:58:27;4.60;;;2.95;;
21822;SDS011;11074;48.596;9.238;2023-04-06T13:00:54;4.40;;;3.10;;
21822;SDS011;11074;48.596;9.238;2023-04-06T13:03:22;4.40;;;3.13;;
21822;SDS011;11074;48.596;9.238;2023-04-06T13:05:51;5.13;;;3.33;;
21822;SDS011;11074;48.596;9.238;2023-04-06T13:08:18;7.13;;;3.70;;
21822;SDS011;11074;48.596;9.238;2023-04-06T13:10:48;5.53;;;3.80;;
21822;SDS011;11074;48.596;9.238;2023-04-06T13:13:17;5.78;;;3.70;;
21822;SDS011;11074;48.596;9.238;2023-04-06T13:15:50;5.30;;;3.20;;
21822;SDS011;11074;48.596;9.238;2023-04-06T13:18:17;9.45;;;3.17;;
21822;SDS011;11074;48.596;9.238;2023-04-06T13:20:43;3.72;;;2.65;;
21822;SDS011;11074;48.596;9.238;2023-04-06T13:23:09;5.85;;;3.15;;
21822;SDS011;11074;48.596;9.238;2023-04-06T13:25:35;6.63;;;3.00;;
21822;SDS011;11074;48.596;9.238;2023-04-06T13:28:01;4.93;;;2.80;;
21822;SDS011;11074;48.596;9.238;2023-04-06T13:30:28;4.40;;;3.00;;
21822;SDS011;11074;48.596;9.238;2023-04-06T13:32:53;7.88;;;3.30;;
21822;SDS011;11074;48.596;9.238;2023-04-06T13:35:19;6.05;;;3.50;;
21822;SDS011;11074;48.596;9.238;2023-04-06T13:37:45;4.75;;;3.28;;
21822;SDS011;11074;48.596;9.238;2023-04-06T13:40:13;4.95;;;3.58;;
21822;SDS011;11074;48.596;9.238;2023-04-06T13:42:39;4.90;;;3.58;;
21822;SDS011;11074;48.596;9.238;2023-04-06T13:45:06;4.80;;;3.40;;
21822;SDS011;11074;48.596;9.238;2023-04-06T13:47:33;4.30;;;2.88;;
21822;SDS011;11074;48.596;9.238;2023-04-06T13:49:58;4.00;;;3.00;;
21822;SDS011;11074;48.596;9.238;2023-04-06T13:52:25;6.78;;;3.15;;
21822;SDS011;11074;48.596;9.238;2023-04-06T13:54:50;4.07;;;3.10;;
21822;SDS011;11074;48.596;9.238;2023-04-06T13:57:18;4.78;;;2.97;;
21822;SDS011;11074;48.596;9.238;2023-04-06T13:59:43;6.50;;;3.40;;
21822;SDS011;11074;48.596;9.238;2023-04-06T14:02:09;4.43;;;3.22;;
21822;SDS011;11074;48.596;9.238;2023-04-06T14:04:36;3.60;;;2.60;;
21822;SDS011;11074;48.596;9.238;2023-04-06T14:07:03;3.97;;;2.55;;
21822;SDS011;11074;48.596;9.238;2023-04-06T14:09:32;4.72;;;2.90;;
21822;SDS011;11074;48.596;9.238;2023-04-06T14:11:58;5.00;;;3.40;;
21822;SDS011;11074;48.596;9.238;2023-04-06T14:14:24;4.68;;;3.13;;
21822;SDS011;11074;48.596;9.238;2023-04-06T14:16:51;4.85;;;3.10;;
21822;SDS011;11074;48.596;9.238;2023-04-06T14:19:17;3.78;;;2.85;;
21822;SDS011;11074;48.596;9.238;2023-04-06T14:21:43;5.80;;;3.28;;
21822;SDS011;11074;48.596;9.238;2023-04-06T14:24:12;5.72;;;3.13;;
21822;SDS011;11074;48.596;9.238;2023-04-06T14:26:39;5.35;;;3.25;;
21822;SDS011;11074;48.596;9.238;2023-04-06T14:29:06;5.70;;;3.42;;
21822;SDS011;11074;48.596;9.238;2023-04-06T14:31:33;4.78;;;3.53;;
21822;SDS011;11074;48.596;9.238;2023-04-06T14:34:00;4.93;;;3.60;;
21822;SDS011;11074;48.596;9.238;2023-04-06T14:36:28;6.47;;;3.38;;
21822;SDS011;11074;48.596;9.238;2023-04-06T14:39:01;5.70;;;3.78;;
21822;SDS011;11074;48.596;9.238;2023-04-06T14:41:29;5.38;;;3.60;;
21822;SDS011;11074;48.596;9.238;2023-04-06T14:43:56;6.97;;;3.95;;
21822;SDS011;11074;48.596;9.238;2023-04-06T14:46:22;5.13;;;3.65;;